createdAt,value
2023-04-01T00:01:46.538Z,96322.03
2023-04-01T00:04:15.031Z,96322.03
2023-04-01T00:06:43.523Z,96324.00
2023-04-01T00:09:13.346Z,96328.34
2023-04-01T00:11:42.047Z,96321.25
2023-04-01T00:14:11.409Z,96324.00
2023-04-01T00:16:40.431Z,96316.53
2023-04-01T00:19:09.175Z,96318.50
2023-04-01T00:21:37.848Z,96314.94
2023-04-01T00:24:06.710Z,96314.13
2023-04-01T00:26:36.519Z,96313.31
2023-04-01T00:29:05.040Z,96301.53
2023-04-01T00:31:33.467Z,96303.13
2023-04-01T00:34:01.920Z,96305.41
2023-04-01T00:36:30.391Z,96311.72
2023-04-01T00:39:01.211Z,96295.22
2023-04-01T00:41:29.656Z,96297.16
2023-04-01T00:44:21.586Z,96298.75
2023-04-01T00:46:50.554Z,96309.31
2023-04-01T00:49:22.380Z,96295.56
2023-04-01T00:51:55.269Z,96309.31
2023-04-01T00:54:26.227Z,96304.94
2023-04-01T00:56:58.864Z,96308.84
2023-04-01T00:59:31.809Z,96311.59
2023-04-01T01:02:00.499Z,96310.00
2023-04-01T01:04:30.879Z,96311.59
2023-04-01T01:07:12.599Z,96300.59
2023-04-01T01:09:50.545Z,96308.84
2023-04-01T01:12:23.054Z,96295.09
2023-04-01T01:15:03.555Z,96299.00
2023-04-01T01:17:43.982Z,96305.28
2023-04-01T01:20:34.975Z,96299.78
2023-04-01T01:23:28.763Z,96294.63
2023-04-01T01:26:09.896Z,96307.59
2023-04-01T01:28:49.837Z,96303.69
2023-04-01T01:31:24.521Z,96308.41
2023-04-01T01:34:08.710Z,96300.94
2023-04-01T01:36:40.539Z,96302.88
2023-04-01T01:39:13.717Z,96311.16
2023-04-01T01:41:46.047Z,96302.09
2023-04-01T01:44:17.231Z,96301.28
2023-04-01T01:46:47.252Z,96301.28
2023-04-01T01:49:17.015Z,96301.28
2023-04-01T01:51:46.807Z,96298.53
2023-04-01T01:54:16.764Z,96299.69
2023-04-01T01:56:49.593Z,96305.97
2023-04-01T01:59:22.263Z,96310.69
2023-04-01T02:01:53.671Z,96294.97
2023-04-01T02:04:24.685Z,96299.69
2023-04-01T02:06:58.592Z,96295.31
2023-04-01T02:09:27.176Z,96298.06
2023-04-01T02:11:59.957Z,96298.06
2023-04-01T02:14:33.177Z,96307.47
2023-04-01T02:17:07.126Z,96306.31
2023-04-01T02:19:40.655Z,96304.72
2023-04-01T02:22:15.410Z,96303.56
2023-04-01T02:24:46.364Z,96311.81
2023-04-01T02:27:15.037Z,96307.47
2023-04-01T02:29:43.573Z,96312.97
2023-04-01T02:32:12.706Z,96322.38
2023-04-01T02:34:41.500Z,96323.97
2023-04-01T02:37:13.556Z,96314.13
2023-04-01T02:39:43.637Z,96314.13
2023-04-01T02:42:12.458Z,96309.75
2023-04-01T02:44:40.982Z,96308.16
2023-04-01T02:47:09.523Z,96314.47
2023-04-01T02:49:38.053Z,96320.75
2023-04-01T02:52:06.680Z,96321.91
2023-04-01T02:54:36.474Z,96325.47
2023-04-01T02:57:04.971Z,96325.47
2023-04-01T02:59:33.676Z,96326.28
2023-04-01T03:02:02.129Z,96330.16
2023-04-01T03:04:30.819Z,96334.53
2023-04-01T03:06:59.285Z,96326.28
2023-04-01T03:09:27.724Z,96330.16
2023-04-01T03:11:57.570Z,96319.97
2023-04-01T03:14:26.123Z,96313.66
2023-04-01T03:16:54.747Z,96312.06
2023-04-01T03:19:23.346Z,96323.06
2023-04-01T03:21:52.013Z,96323.06
2023-04-01T03:24:20.595Z,96317.56
2023-04-01T03:26:49.620Z,96319.50
2023-04-01T03:29:19.694Z,96315.94
2023-04-01T03:31:48.234Z,96319.50
2023-04-01T03:34:16.790Z,96326.94
2023-04-01T03:36:45.503Z,96322.25
2023-04-01T03:39:14.320Z,96319.50
2023-04-01T03:41:43.777Z,96321.44
2023-04-01T03:44:12.906Z,96324.19
2023-04-01T03:46:43.375Z,96329.69
2023-04-01T03:49:13.173Z,96329.25
2023-04-01T03:51:42.936Z,96322.13
2023-04-01T03:54:12.311Z,96325.34
2023-04-01T03:56:40.990Z,96319.84
2023-04-01T03:59:09.946Z,96330.84
2023-04-01T04:01:38.527Z,96328.91
2023-04-01T04:04:08.430Z,96340.25
2023-04-01T04:06:37.123Z,96322.59
2023-04-01T04:09:05.681Z,96325.34
2023-04-01T04:11:34.285Z,96322.13
2023-04-01T04:14:03.782Z,96329.25
2023-04-01T04:16:32.396Z,96329.25
2023-04-01T04:19:04.454Z,96330.38
2023-04-01T04:21:34.407Z,96322.13
2023-04-01T04:24:03.449Z,96332.34
2023-04-01T04:26:51.747Z,96327.63
2023-04-01T04:29:20.312Z,96322.94
2023-04-01T04:31:48.840Z,96317.78
2023-04-01T04:34:17.296Z,96321.31
2023-04-01T04:36:47.059Z,96326.03
2023-04-01T04:39:16.289Z,96322.13
2023-04-01T04:41:45.743Z,96324.88
2023-04-01T04:44:14.905Z,96317.78
2023-04-01T04:46:44.568Z,96323.28
2023-04-01T04:49:17.428Z,96319.72
2023-04-01T04:51:47.851Z,96307.91
2023-04-01T04:54:17.845Z,96304.81
2023-04-01T04:56:53.890Z,96302.41
2023-04-01T04:59:23.433Z,96297.72
2023-04-01T05:02:00.122Z,96304.03
2023-04-01T05:04:28.696Z,96300.81
2023-04-01T05:06:58.454Z,96298.06
2023-04-01T05:09:27.524Z,96300.47
2023-04-01T05:11:56.194Z,96296.91
2023-04-01T05:14:26.397Z,96302.41
2023-04-01T05:17:01.850Z,96316.16
2023-04-01T05:19:30.463Z,96306.31
2023-04-01T05:22:00.353Z,96309.84
2023-04-01T05:24:28.965Z,96317.31
2023-04-01T05:26:58.298Z,96307.44
2023-04-01T05:29:27.754Z,96317.31
2023-04-01T05:32:03.627Z,96313.41
2023-04-01T05:34:32.072Z,96307.13
2023-04-01T05:37:01.955Z,96311.81
2023-04-01T05:39:30.484Z,96307.91
2023-04-01T05:41:58.994Z,96300.81
2023-04-01T05:44:27.400Z,96304.34
2023-04-01T05:47:05.457Z,96303.56
2023-04-01T05:49:35.331Z,96305.50
2023-04-01T05:52:06.233Z,96300.81
2023-04-01T05:54:37.553Z,96308.25
2023-04-01T05:57:06.074Z,96300.81
2023-04-01T05:59:35.913Z,96295.31
2023-04-01T06:02:04.968Z,96304.69
2023-04-01T06:04:39.395Z,96301.59
2023-04-01T06:07:14.650Z,96292.09
2023-04-01T06:09:44.299Z,96302.16
2023-04-01T06:12:30.080Z,96300.09
2023-04-01T06:15:13.316Z,96300.09
2023-04-01T06:17:58.652Z,96302.84
2023-04-01T06:20:34.025Z,96300.91
2023-04-01T06:23:23.029Z,96280.84
2023-04-01T06:26:07.495Z,96296.22
2023-04-01T06:29:00.569Z,96291.16
2023-04-01T06:31:47.197Z,96286.81
2023-04-01T06:34:31.118Z,96280.16
2023-04-01T06:37:13.240Z,96276.63
2023-04-01T06:40:01.504Z,96269.16
2023-04-01T06:42:46.404Z,96280.16
2023-04-01T06:45:43.891Z,96281.78
2023-04-01T06:49:02.479Z,96280.63
2023-04-01T06:51:52.514Z,96281.09
2023-04-01T06:54:42.807Z,96286.25
2023-04-01T06:57:45.854Z,96276.84
2023-04-01T07:00:28.950Z,96280.41
2023-04-01T07:03:07.389Z,96277.66
2023-04-01T07:05:37.021Z,96280.41
2023-04-01T07:08:10.374Z,96282.00
2023-04-01T07:10:45.812Z,96280.06
2023-04-01T07:13:38.489Z,96276.97
2023-04-01T07:16:19.921Z,96278.22
2023-04-01T07:18:52.128Z,96279.84
2023-04-01T07:21:30.043Z,96279.97
2023-04-01T07:24:11.246Z,96275.72
2023-04-01T07:26:44.550Z,96273.78
2023-04-01T07:29:20.786Z,96274.22
2023-04-01T07:32:20.064Z,96277.78
2023-04-01T07:35:08.599Z,96278.59
2023-04-01T07:37:47.489Z,96280.19
2023-04-01T07:40:26.216Z,96274.81
2023-04-01T07:43:12.694Z,96281.91
2023-04-01T07:45:56.077Z,96272.50
2023-04-01T07:48:33.879Z,96278.81
2023-04-01T07:51:12.812Z,96265.50
2023-04-01T07:53:47.690Z,96267.13
2023-04-01T07:56:22.557Z,96274.22
2023-04-01T07:58:59.141Z,96284.56
2023-04-01T08:01:57.319Z,96285.34
2023-04-01T08:04:36.042Z,96285.00
2023-04-01T08:07:12.314Z,96278.25
2023-04-01T08:09:56.656Z,96281.81
2023-04-01T08:13:07.806Z,96275.16
2023-04-01T08:16:07.984Z,96282.16
2023-04-01T08:18:53.023Z,96280.19
2023-04-01T08:21:25.320Z,96283.75
2023-04-01T08:23:58.343Z,96281.34
2023-04-01T08:26:32.977Z,96281.34
2023-04-01T08:29:06.252Z,96279.03
2023-04-01T08:31:39.276Z,96273.53
2023-04-01T08:34:17.282Z,96276.75
2023-04-01T08:36:50.344Z,96282.25
2023-04-01T08:39:23.971Z,96288.56
2023-04-01T08:42:26.232Z,96283.88
2023-04-01T08:45:28.184Z,96290.97
2023-04-01T08:48:29.928Z,96291.78
2023-04-01T08:51:21.502Z,96288.69
2023-04-01T08:54:03.611Z,96287.88
2023-04-01T08:56:40.218Z,96290.28
2023-04-01T08:59:29.380Z,96285.94
2023-04-01T09:02:29.121Z,96294.19
2023-04-01T09:05:37.620Z,96290.28
2023-04-01T09:08:22.193Z,96289.47
2023-04-01T09:11:24.261Z,96296.13
2023-04-01T09:14:23.617Z,96295.00
2023-04-01T09:17:39.436Z,96295.34
2023-04-01T09:20:20.926Z,96296.47
2023-04-01T09:23:08.026Z,96302.78
2023-04-01T09:25:52.945Z,96304.75
2023-04-01T09:28:29.948Z,96301.19
2023-04-01T09:31:34.898Z,96308.28
2023-04-01T09:34:55.173Z,96309.91
2023-04-01T09:37:37.080Z,96309.09
2023-04-01T09:40:28.479Z,96321.72
2023-04-01T09:43:23.576Z,96320.56
2023-04-01T09:46:11.434Z,96304.50
2023-04-01T09:49:08.062Z,96311.63
2023-04-01T09:51:45.983Z,96315.50
2023-04-01T09:54:38.374Z,96313.22
2023-04-01T09:57:35.162Z,96317.94
2023-04-01T10:00:41.878Z,96328.59
2023-04-01T10:03:47.976Z,96324.25
2023-04-01T10:06:53.656Z,96321.94
2023-04-01T10:10:11.946Z,96325.50
2023-04-01T10:12:58.335Z,96320.34
2023-04-01T10:15:56.740Z,96336.84
2023-04-01T10:18:49.332Z,96328.59
2023-04-01T10:21:39.720Z,96324.25
2023-04-01T10:24:25.646Z,96336.84
2023-04-01T10:27:15.923Z,96336.84
2023-04-01T10:30:35.971Z,96340.06
2023-04-01T10:34:05.599Z,96330.66
2023-04-01T10:36:48.690Z,96324.69
2023-04-01T10:40:03.891Z,96331.81
2023-04-01T10:43:30.513Z,96336.06
2023-04-01T10:46:44.926Z,96336.84
2023-04-01T10:49:43.356Z,96334.56
2023-04-01T10:52:18.622Z,96339.25
2023-04-01T10:55:38.586Z,96335.38
2023-04-01T10:58:51.783Z,96338.47
2023-04-01T11:02:19.671Z,96335.72
2023-04-01T11:06:08.934Z,96341.22
2023-04-01T11:09:19.980Z,96340.75
2023-04-01T11:12:17.963Z,96347.41
2023-04-01T11:15:23.449Z,96335.94
2023-04-01T11:18:30.750Z,96350.97
2023-04-01T11:21:44.836Z,96345.13
2023-04-01T11:24:38.963Z,96344.88
2023-04-01T11:27:43.991Z,96346.50
2023-04-01T11:30:27.358Z,96322.97
2023-04-01T11:33:03.263Z,96341.91
2023-04-01T11:35:44.773Z,96348.56
2023-04-01T11:38:24.485Z,96343.84
2023-04-01T11:41:01.542Z,96344.19
2023-04-01T11:44:05.477Z,96348.09
2023-04-01T11:47:02.510Z,96337.09
2023-04-01T11:49:41.923Z,96348.09
2023-04-01T11:52:39.707Z,96349.69
2023-04-01T11:55:21.776Z,96343.84
2023-04-01T11:58:20.221Z,96345.13
2023-04-01T12:00:54.107Z,96356.94
2023-04-01T12:03:43.740Z,96357.03
2023-04-01T12:06:18.648Z,96350.41
2023-04-01T12:08:57.947Z,96346.03
2023-04-01T12:11:35.107Z,96358.66
2023-04-01T12:14:15.222Z,96360.25
2023-04-01T12:16:58.367Z,96356.34
2023-04-01T12:19:38.010Z,96356.81
2023-04-01T12:22:24.153Z,96355.22
2023-04-01T12:25:03.610Z,96360.38
2023-04-01T12:27:42.502Z,96366.69
2023-04-01T12:30:41.590Z,96364.38
2023-04-01T12:33:27.070Z,96366.69
2023-04-01T12:36:03.763Z,96383.22
2023-04-01T12:38:44.112Z,96373.81
2023-04-01T12:41:19.460Z,96371.03
2023-04-01T12:44:10.849Z,96375.75
2023-04-01T12:46:56.971Z,96376.56
2023-04-01T12:49:44.822Z,96381.72
2023-04-01T12:52:15.387Z,96378.50
2023-04-01T12:55:25.239Z,96371.03
2023-04-01T12:58:19.489Z,96386.41
2023-04-01T13:01:02.875Z,96379.31
2023-04-01T13:03:56.811Z,96375.41
2023-04-01T13:06:42.147Z,96380.91
2023-04-01T13:09:26.964Z,96376.56
2023-04-01T13:12:24.858Z,96374.59
2023-04-01T13:15:11.611Z,96382.06
2023-04-01T13:17:50.386Z,96384.81
2023-04-01T13:20:31.330Z,96384.81
2023-04-01T13:23:16.403Z,96379.31
2023-04-01T13:26:06.978Z,96386.41
2023-04-01T13:28:46.953Z,96377.69
2023-04-01T13:31:30.268Z,96390.66
2023-04-01T13:34:12.170Z,96395.03
2023-04-01T13:36:55.677Z,96394.22
2023-04-01T13:39:34.370Z,96391.81
2023-04-01T13:42:23.275Z,96390.22
2023-04-01T13:44:57.032Z,96394.91
2023-04-01T13:47:54.022Z,96386.66
2023-04-01T13:50:48.070Z,96394.09
2023-04-01T13:53:51.341Z,96405.13
2023-04-01T13:56:31.342Z,96389.75
2023-04-01T13:59:21.690Z,96402.75
2023-04-01T14:01:56.016Z,96398.28
2023-04-01T14:04:40.415Z,96403.38
2023-04-01T14:07:21.133Z,96408.41
2023-04-01T14:10:10.209Z,96410.16
2023-04-01T14:12:46.487Z,96400.63
2023-04-01T14:15:36.540Z,96395.75
2023-04-01T14:18:19.852Z,96399.16
2023-04-01T14:20:53.707Z,96402.00
2023-04-01T14:23:53.704Z,96399.22
2023-04-01T14:26:33.978Z,96404.13
2023-04-01T14:29:15.299Z,96409.50
2023-04-01T14:32:08.570Z,96403.03
2023-04-01T14:34:51.828Z,96404.16
2023-04-01T14:37:48.865Z,96419.41
2023-04-01T14:40:36.380Z,96412.94
2023-04-01T14:43:38.875Z,96408.63
2023-04-01T14:46:18.517Z,96405.66
2023-04-01T14:49:00.068Z,96424.63
2023-04-01T14:51:33.842Z,96406.66
2023-04-01T14:54:07.943Z,96416.31
2023-04-01T14:56:41.511Z,96411.19
2023-04-01T14:59:28.077Z,96413.31
2023-04-01T15:02:03.429Z,96415.00
2023-04-01T15:04:45.371Z,96420.97
2023-04-01T15:07:29.615Z,96419.06
2023-04-01T15:10:08.838Z,96424.66
2023-04-01T15:12:45.766Z,96428.75
2023-04-01T15:15:27.847Z,96432.31
2023-04-01T15:18:06.163Z,96432.69
2023-04-01T15:20:55.237Z,96428.88
2023-04-01T15:23:36.687Z,96443.16
2023-04-01T15:26:24.795Z,96431.72
2023-04-01T15:29:08.544Z,96438.50
2023-04-01T15:31:44.491Z,96435.44
2023-04-01T15:34:38.773Z,96437.41
2023-04-01T15:37:15.673Z,96447.69
2023-04-01T15:39:56.519Z,96440.66
2023-04-01T15:42:36.825Z,96453.84
2023-04-01T15:45:18.696Z,96450.28
2023-04-01T15:48:01.035Z,96448.69
2023-04-01T15:50:56.754Z,96447.66
2023-04-01T15:53:36.545Z,96449.41
2023-04-01T15:56:20.550Z,96454.09
2023-04-01T15:58:58.623Z,96453.28
2023-04-01T16:01:37.249Z,96451.94
2023-04-01T16:04:31.893Z,96459.84
2023-04-01T16:07:11.904Z,96462.84
2023-04-01T16:09:45.097Z,96464.59
2023-04-01T16:12:20.220Z,96467.28
2023-04-01T16:15:04.182Z,96467.66
2023-04-01T16:17:58.714Z,96467.91
2023-04-01T16:20:47.425Z,96465.09
2023-04-01T16:23:22.497Z,96476.09
2023-04-01T16:25:58.768Z,96468.22
2023-04-01T16:28:33.172Z,96471.72
2023-04-01T16:31:08.315Z,96484.81
2023-04-01T16:33:43.757Z,96480.97
2023-04-01T16:36:23.766Z,96479.06
2023-04-01T16:39:01.308Z,96491.09
2023-04-01T16:41:35.021Z,96484.56
2023-04-01T16:44:16.071Z,96485.13
2023-04-01T16:46:48.142Z,96484.50
2023-04-01T16:49:31.102Z,96483.03
2023-04-01T16:52:15.996Z,96483.63
2023-04-01T16:54:49.918Z,96492.16
2023-04-01T16:57:22.315Z,96502.28
2023-04-01T16:59:59.804Z,96502.09
2023-04-01T17:02:31.311Z,96501.19
2023-04-01T17:05:03.039Z,96507.38
2023-04-01T17:07:45.003Z,96504.19
2023-04-01T17:10:30.802Z,96512.81
2023-04-01T17:13:16.636Z,96515.09
2023-04-01T17:15:53.086Z,96516.59
2023-04-01T17:18:29.914Z,96513.75
2023-04-01T17:21:04.632Z,96510.88
2023-04-01T17:23:39.571Z,96515.47
2023-04-01T17:26:26.175Z,96520.06
2023-04-01T17:29:04.051Z,96515.25
2023-04-01T17:31:45.712Z,96523.06
2023-04-01T17:34:29.347Z,96515.47
2023-04-01T17:37:11.186Z,96524.88
2023-04-01T17:39:57.084Z,96523.63
2023-04-01T17:42:35.863Z,96531.44
2023-04-01T17:45:11.996Z,96534.53
2023-04-01T17:47:48.597Z,96531.31
2023-04-01T17:50:25.103Z,96534.41
2023-04-01T17:53:04.567Z,96535.91
2023-04-01T17:55:49.550Z,96545.34
2023-04-01T17:58:21.652Z,96542.13
2023-04-01T18:01:04.733Z,96548.78
2023-04-01T18:03:57.095Z,96550.28
2023-04-01T18:06:37.168Z,96556.13
2023-04-01T18:09:19.885Z,96551.31
2023-04-01T18:12:01.410Z,96545.34
2023-04-01T18:15:03.199Z,96555.91
2023-04-01T18:17:44.700Z,96560.16
2023-04-01T18:20:33.555Z,96553.38
2023-04-01T18:23:08.474Z,96565.88
2023-04-01T18:25:41.744Z,96557.50
2023-04-01T18:28:34.846Z,96568.88
2023-04-01T18:31:10.976Z,96570.38
2023-04-01T18:33:50.059Z,96572.66
2023-04-01T18:36:26.065Z,96571.06
2023-04-01T18:38:58.717Z,96581.63
2023-04-01T18:41:35.533Z,96581.16
2023-04-01T18:44:28.704Z,96574.72
2023-04-01T18:47:07.242Z,96581.03
2023-04-01T18:49:45.524Z,96594.34
2023-04-01T18:52:21.633Z,96589.97
2023-04-01T18:55:09.821Z,96602.94
2023-04-01T18:57:44.259Z,96610.75
2023-04-01T19:00:23.120Z,96620.84
2023-04-01T19:03:00.103Z,96623.25
2023-04-01T19:05:33.922Z,96632.78
2023-04-01T19:08:20.439Z,96643.81
2023-04-01T19:11:01.811Z,96636.34
2023-04-01T19:13:38.886Z,96639.22
2023-04-01T19:16:22.877Z,96634.53
2023-04-01T19:19:09.683Z,96635.34
2023-04-01T19:21:42.010Z,96650.38
2023-04-01T19:24:35.537Z,96640.16
2023-04-01T19:27:12.883Z,96636.25
2023-04-01T19:29:54.851Z,96638.69
2023-04-01T19:32:37.572Z,96637.19
2023-04-01T19:35:19.031Z,96639.59
2023-04-01T19:37:53.182Z,96646.41
2023-04-01T19:40:43.267Z,96648.34
2023-04-01T19:43:20.542Z,96639.28
2023-04-01T19:45:57.052Z,96651.44
2023-04-01T19:48:46.650Z,96660.97
2023-04-01T19:51:23.041Z,96653.06
2023-04-01T19:53:58.504Z,96664.06
2023-04-01T19:56:35.854Z,96670.72
2023-04-01T19:59:09.995Z,96666.03
2023-04-01T20:01:46.402Z,96668.78
2023-04-01T20:04:19.177Z,96674.28
2023-04-01T20:06:57.781Z,96674.28
2023-04-01T20:09:50.530Z,96680.59
2023-04-01T20:12:31.830Z,96686.13
2023-04-01T20:15:03.052Z,96686.13
2023-04-01T20:17:40.963Z,96684.50
2023-04-01T20:20:23.339Z,96687.72
2023-04-01T20:23:07.689Z,96691.63
2023-04-01T20:25:45.688Z,96688.88
2023-04-01T20:28:22.261Z,96690.03
2023-04-01T20:31:02.503Z,96695.53
2023-04-01T20:33:43.270Z,96696.34
2023-04-01T20:36:23.564Z,96695.53
2023-04-01T20:39:21.232Z,96701.03
2023-04-01T20:42:02.777Z,96705.41
2023-04-01T20:44:42.899Z,96712.06
2023-04-01T20:47:18.946Z,96712.06
2023-04-01T20:50:00.156Z,96704.94
2023-04-01T20:52:39.940Z,96699.44
2023-04-01T20:55:56.217Z,96696.69
2023-04-01T20:58:35.871Z,96685.88
2023-04-01T21:01:15.271Z,96698.97
2023-04-01T21:03:51.083Z,96706.09
2023-04-01T21:07:02.005Z,96702.88
2023-04-01T21:09:43.819Z,96704.00
2023-04-01T21:12:23.976Z,96702.41
2023-04-01T21:14:59.585Z,96707.91
2023-04-01T21:17:40.694Z,96712.63
2023-04-01T21:20:30.722Z,96712.47
2023-04-01T21:23:25.626Z,96720.28
2023-04-01T21:26:13.709Z,96724.84
2023-04-01T21:28:55.335Z,96721.63
2023-04-01T21:31:37.987Z,96725.88
2023-04-01T21:34:30.277Z,96737.22
2023-04-01T21:37:15.787Z,96732.38
2023-04-01T21:40:04.628Z,96740.19
2023-04-01T21:42:45.757Z,96735.34
2023-04-01T21:45:46.670Z,96745.56
2023-04-01T21:48:54.751Z,96752.53
2023-04-01T21:51:45.841Z,96744.63
2023-04-01T21:55:08.424Z,96746.91
2023-04-01T21:58:09.318Z,96751.59
2023-04-01T22:00:40.249Z,96749.94
2023-04-01T22:03:40.711Z,96753.03
2023-04-01T22:06:21.114Z,96758.88
2023-04-01T22:09:04.096Z,96763.91
2023-04-01T22:11:45.635Z,96762.31
2023-04-01T22:14:21.210Z,96760.69
2023-04-01T22:16:55.649Z,96764.59
2023-04-01T22:19:32.131Z,96768.47
2023-04-01T22:22:06.233Z,96764.13
2023-04-01T22:24:39.401Z,96765.25
2023-04-01T22:27:13.861Z,96769.16
2023-04-01T22:29:53.247Z,96763.66
2023-04-01T22:32:27.981Z,96763.66
2023-04-01T22:35:05.101Z,96765.94
2023-04-01T22:37:42.748Z,96766.72
2023-04-01T22:40:24.454Z,96765.13
2023-04-01T22:42:58.786Z,96778.06
2023-04-01T22:45:45.070Z,96775.31
2023-04-01T22:48:17.709Z,96780.84
2023-04-01T22:50:55.810Z,96781.16
2023-04-01T22:53:36.271Z,96780.34
2023-04-01T22:56:09.016Z,96785.06
2023-04-01T22:58:43.024Z,96791.38
2023-04-01T23:01:18.535Z,96797.22
2023-04-01T23:03:51.005Z,96790.91
2023-04-01T23:06:23.088Z,96801.91
2023-04-01T23:09:09.867Z,96808.56
2023-04-01T23:11:46.447Z,96810.50
2023-04-01T23:14:45.109Z,96802.25
2023-04-01T23:17:33.194Z,96810.50
2023-04-01T23:20:11.730Z,96804.19
2023-04-01T23:22:48.466Z,96810.84
2023-04-01T23:25:27.042Z,96810.03
2023-04-01T23:28:01.726Z,96807.59
2023-04-01T23:30:52.445Z,96810.38
2023-04-01T23:33:29.036Z,96807.59
2023-04-01T23:36:06.096Z,96818.63
2023-04-01T23:38:37.778Z,96825.25
2023-04-01T23:41:07.726Z,96830.78
2023-04-01T23:43:40.417Z,96836.28
2023-04-01T23:46:09.759Z,96840.16
2023-04-01T23:48:41.943Z,96835.81
2023-04-01T23:51:16.425Z,96849.56
2023-04-01T23:53:48.455Z,96847.16
2023-04-01T23:56:18.869Z,96849.56
2023-04-01T23:58:53.288Z,96844.06
